createdAt,value
2023-05-06T00:01:45.053Z,103148.38
2023-05-06T00:04:12.437Z,103147.56
2023-05-06T00:06:39.712Z,103157.56
2023-05-06T00:09:07.093Z,103155.16
2023-05-06T00:11:34.354Z,103160.75
2023-05-06T00:14:01.715Z,103163.94
2023-05-06T00:16:28.985Z,103197.97
2023-05-06T00:18:58.008Z,103208.38
2023-05-06T00:21:25.389Z,103222.38
2023-05-06T00:23:52.641Z,103219.16
2023-05-06T00:26:19.891Z,103244.78
2023-05-06T00:28:47.234Z,103233.97
2023-05-06T00:31:14.496Z,103233.97
2023-05-06T00:33:41.817Z,103217.19
2023-05-06T00:36:10.574Z,103224.00
2023-05-06T00:38:37.923Z,103221.16
2023-05-06T00:41:05.696Z,103208.75
2023-05-06T00:43:32.983Z,103189.94
2023-05-06T00:46:00.463Z,103193.94
2023-05-06T00:48:28.314Z,103161.97
2023-05-06T00:50:55.830Z,103133.97
2023-05-06T00:53:24.800Z,103131.56
2023-05-06T00:55:52.807Z,103132.38
2023-05-06T00:58:20.715Z,103129.97
2023-05-06T01:00:48.555Z,103127.97
2023-05-06T01:03:16.013Z,103111.56
2023-05-06T01:06:04.100Z,103111.97
2023-05-06T01:08:37.630Z,103097.16
2023-05-06T01:11:09.730Z,103058.38
2023-05-06T01:13:45.142Z,103016.00
2023-05-06T01:16:14.605Z,103012.38
2023-05-06T01:18:44.077Z,102989.66
2023-05-06T01:21:11.738Z,102986.84
2023-05-06T01:23:53.672Z,103000.84
2023-05-06T01:26:21.117Z,103000.03
2023-05-06T01:28:48.783Z,103005.25
2023-05-06T01:31:24.901Z,103031.66
2023-05-06T01:34:05.239Z,103062.44
2023-05-06T01:36:39.033Z,103111.19
2023-05-06T01:39:15.579Z,103112.78
2023-05-06T01:41:44.249Z,103125.56
2023-05-06T01:44:12.249Z,103126.78
2023-05-06T01:46:43.821Z,103125.56
2023-05-06T01:49:15.508Z,103159.94
2023-05-06T01:51:47.604Z,103177.94
2023-05-06T01:54:16.773Z,103172.72
2023-05-06T01:56:45.334Z,103157.53
2023-05-06T01:59:15.726Z,103167.88
2023-05-06T02:01:43.145Z,103154.28
2023-05-06T02:04:10.445Z,103175.06
2023-05-06T02:06:38.149Z,103193.38
2023-05-06T02:09:06.412Z,103191.81
2023-05-06T02:11:39.873Z,103195.41
2023-05-06T02:14:08.408Z,103204.19
2023-05-06T02:16:36.696Z,103201.75
2023-05-06T02:19:06.482Z,103213.75
2023-05-06T02:21:34.677Z,103202.59
2023-05-06T02:24:01.971Z,103180.19
2023-05-06T02:26:29.275Z,103190.19
2023-05-06T02:28:58.012Z,103192.94
2023-05-06T02:31:25.262Z,103189.31
2023-05-06T02:33:52.636Z,103202.50
2023-05-06T02:36:20.027Z,103210.44
2023-05-06T02:38:47.620Z,103202.47
2023-05-06T02:41:14.825Z,103196.91
2023-05-06T02:43:42.125Z,103190.53
2023-05-06T02:46:11.115Z,103159.41
2023-05-06T02:48:38.511Z,103133.81
2023-05-06T02:51:05.912Z,103115.78
2023-05-06T02:53:33.234Z,103119.41
2023-05-06T02:56:00.618Z,103112.63
2023-05-06T02:58:27.940Z,103106.94
2023-05-06T03:00:55.272Z,103119.72
2023-05-06T03:03:24.033Z,103120.91
2023-05-06T03:05:51.537Z,103123.31
2023-05-06T03:08:19.005Z,103133.66
2023-05-06T03:10:46.900Z,103141.25
2023-05-06T03:13:17.114Z,103132.84
2023-05-06T03:15:44.703Z,103132.44
2023-05-06T03:18:12.012Z,103165.97
2023-05-06T03:20:41.747Z,103157.50
2023-05-06T03:23:09.059Z,103179.88
2023-05-06T03:25:36.950Z,103176.16
2023-05-06T03:28:05.028Z,103184.03
2023-05-06T03:30:33.412Z,103204.38
2023-05-06T03:33:04.435Z,103223.56
2023-05-06T03:35:33.557Z,103235.50
2023-05-06T03:38:03.099Z,103249.06
2023-05-06T03:40:46.225Z,103279.41
2023-05-06T03:43:15.289Z,103287.41
2023-05-06T03:45:44.308Z,103299.72
2023-05-06T03:48:11.946Z,103314.53
2023-05-06T03:50:42.982Z,103316.91
2023-05-06T03:53:11.733Z,103327.31
2023-05-06T03:55:41.709Z,103335.28
2023-05-06T03:58:10.826Z,103330.78
2023-05-06T04:00:38.590Z,103330.00
2023-05-06T04:03:07.014Z,103362.50
2023-05-06T04:05:42.107Z,103360.00
2023-05-06T04:08:12.704Z,103367.38
2023-05-06T04:10:40.907Z,103365.78
2023-05-06T04:13:15.763Z,103350.59
2023-05-06T04:15:45.013Z,103341.78
2023-05-06T04:18:19.129Z,103353.03
2023-05-06T04:20:55.464Z,103338.75
2023-05-06T04:23:24.252Z,103334.78
2023-05-06T04:25:51.769Z,103309.66
2023-05-06T04:28:21.231Z,103286.13
2023-05-06T04:30:51.328Z,103250.97
2023-05-06T04:33:19.791Z,103228.75
2023-05-06T04:35:50.898Z,103188.03
2023-05-06T04:38:18.625Z,103154.56
2023-05-06T04:40:47.431Z,103077.13
2023-05-06T04:43:15.169Z,103016.44
2023-05-06T04:45:43.217Z,102936.16
2023-05-06T04:48:10.689Z,102876.72
2023-05-06T04:50:38.022Z,102817.28
2023-05-06T04:53:05.390Z,102770.59
2023-05-06T04:55:34.171Z,102726.66
2023-05-06T04:58:02.870Z,102675.53
2023-05-06T05:00:30.206Z,102623.97
2023-05-06T05:02:57.577Z,102558.47
2023-05-06T05:05:26.806Z,102486.75
2023-05-06T05:07:55.909Z,102429.72
2023-05-06T05:10:24.720Z,102398.50
2023-05-06T05:12:52.756Z,102352.53
2023-05-06T05:15:21.631Z,102292.50
2023-05-06T05:17:50.617Z,102244.47
2023-05-06T05:20:18.800Z,102189.47
2023-05-06T05:22:46.129Z,102161.41
2023-05-06T05:25:13.723Z,102142.19
2023-05-06T05:27:41.281Z,102070.22
2023-05-06T05:30:09.454Z,102016.66
2023-05-06T05:32:40.369Z,101984.81
2023-05-06T05:35:08.754Z,101925.59
2023-05-06T05:37:36.946Z,101863.94
2023-05-06T05:40:06.230Z,101803.31
2023-05-06T05:42:36.214Z,101733.28
2023-05-06T05:45:09.572Z,101682.19
2023-05-06T05:47:37.492Z,101613.25
2023-05-06T05:50:08.126Z,101534.47
2023-05-06T05:52:36.333Z,101448.84
2023-05-06T05:55:04.185Z,101347.97
2023-05-06T05:57:32.353Z,101228.56
2023-05-06T05:59:59.749Z,101070.97
2023-05-06T06:02:27.694Z,100927.28
2023-05-06T06:04:55.129Z,100814.38
2023-05-06T06:07:24.925Z,100708.63
2023-05-06T06:09:52.208Z,100626.22
2023-05-06T06:12:19.571Z,100563.63
2023-05-06T06:14:46.992Z,100502.50
2023-05-06T06:17:17.616Z,100460.22
2023-05-06T06:19:46.069Z,100397.63
2023-05-06T06:22:13.751Z,100341.72
2023-05-06T06:24:43.076Z,100299.94
2023-05-06T06:27:11.792Z,100247.72
2023-05-06T06:29:39.474Z,100173.72
2023-05-06T06:32:08.234Z,100127.13
2023-05-06T06:34:35.526Z,100090.38
2023-05-06T06:37:03.141Z,100050.72
2023-05-06T06:39:30.502Z,100015.50
2023-05-06T06:41:59.162Z,99983.28
2023-05-06T06:44:31.413Z,99940.53
2023-05-06T06:46:58.819Z,99920.84
2023-05-06T06:49:26.521Z,99919.00
2023-05-06T06:51:54.078Z,99922.97
2023-05-06T06:54:21.390Z,99916.06
2023-05-06T06:56:48.730Z,99908.63
2023-05-06T06:59:17.322Z,99912.59
2023-05-06T07:01:44.852Z,99900.66
2023-05-06T07:04:12.295Z,99868.63
2023-05-06T07:06:39.676Z,99867.28
2023-05-06T07:09:07.001Z,99839.09
2023-05-06T07:11:34.207Z,99819.47
2023-05-06T07:14:01.654Z,99799.78
2023-05-06T07:16:30.820Z,99796.50
2023-05-06T07:18:58.227Z,99775.38
2023-05-06T07:21:25.562Z,99767.22
2023-05-06T07:23:52.735Z,99774.59
2023-05-06T07:26:21.012Z,99769.06
2023-05-06T07:28:48.277Z,99772.34
2023-05-06T07:31:15.626Z,99765.28
2023-05-06T07:33:44.288Z,99758.97
2023-05-06T07:36:11.587Z,99770.09
2023-05-06T07:38:39.041Z,99752.66
2023-05-06T07:41:06.385Z,99760.16
2023-05-06T07:43:33.659Z,99768.19
2023-05-06T07:46:01.100Z,99772.56
2023-05-06T07:48:28.740Z,99751.59
2023-05-06T07:50:57.733Z,99762.34
2023-05-06T07:53:25.260Z,99757.25
2023-05-06T07:55:52.671Z,99768.63
2023-05-06T07:58:19.936Z,99770.53
2023-05-06T08:00:47.248Z,99755.09
2023-05-06T08:03:14.926Z,99781.75
2023-05-06T08:05:42.380Z,99767.25
2023-05-06T08:08:10.935Z,99764.78
2023-05-06T08:10:38.207Z,99785.03
2023-05-06T08:13:05.537Z,99780.53
2023-05-06T08:15:33.126Z,99786.69
2023-05-06T08:18:10.219Z,99776.09
2023-05-06T08:20:45.831Z,99773.25
2023-05-06T08:23:17.692Z,99780.53
2023-05-06T08:25:47.252Z,99788.66
2023-05-06T08:28:14.535Z,99766.06
2023-05-06T08:30:41.963Z,99777.97
2023-05-06T08:33:11.533Z,99792.06
2023-05-06T08:35:38.838Z,99808.16
2023-05-06T08:38:06.067Z,99821.13
2023-05-06T08:40:40.279Z,99807.63
2023-05-06T08:43:20.610Z,99802.25
2023-05-06T08:45:49.377Z,99815.69
2023-05-06T08:48:16.886Z,99808.13
2023-05-06T08:50:44.761Z,99810.53
2023-05-06T08:53:13.803Z,99813.91
2023-05-06T08:55:43.365Z,99837.94
2023-05-06T08:58:13.228Z,99836.81
2023-05-06T09:00:41.026Z,99815.66
2023-05-06T09:03:08.368Z,99809.09
2023-05-06T09:05:35.679Z,99828.25
2023-05-06T09:08:03.115Z,99888.59
2023-05-06T09:10:42.865Z,99897.81
2023-05-06T09:13:12.635Z,99874.53
2023-05-06T09:15:40.288Z,99917.47
2023-05-06T09:18:07.887Z,99941.47
2023-05-06T09:20:35.405Z,100019.56
2023-05-06T09:23:02.913Z,100020.03
2023-05-06T09:25:30.548Z,100015.91
2023-05-06T09:28:04.039Z,100014.13
2023-05-06T09:30:37.703Z,100127.41
2023-05-06T09:33:05.435Z,100140.13
2023-05-06T09:35:38.265Z,100091.34
2023-05-06T09:38:07.292Z,100054.19
2023-05-06T09:40:34.968Z,100113.38
2023-05-06T09:43:02.884Z,100141.31
2023-05-06T09:45:30.686Z,100217.25
2023-05-06T09:47:59.595Z,100364.50
2023-05-06T09:50:27.464Z,100481.28
2023-05-06T09:52:55.982Z,101352.69
2023-05-06T09:55:23.785Z,101643.50
2023-05-06T09:57:51.151Z,101533.88
2023-05-06T10:00:19.920Z,101413.50
2023-05-06T10:02:48.250Z,101140.41
2023-05-06T10:05:17.399Z,101157.31
2023-05-06T10:07:48.042Z,100928.41
2023-05-06T10:10:15.926Z,100855.47
2023-05-06T10:12:43.882Z,101017.16
2023-05-06T10:15:11.595Z,101134.69
2023-05-06T10:17:39.996Z,101317.78
2023-05-06T10:20:10.401Z,101367.06
2023-05-06T10:22:52.237Z,101317.31
2023-05-06T10:25:29.841Z,101471.91
2023-05-06T10:27:57.386Z,101507.00
2023-05-06T10:30:26.540Z,101521.69
2023-05-06T10:32:56.936Z,101458.31
2023-05-06T10:35:35.206Z,101397.91
2023-05-06T10:38:07.670Z,101348.25
2023-05-06T10:40:34.954Z,101410.75
2023-05-06T10:43:22.435Z,101382.22
2023-05-06T10:46:03.802Z,101352.91
2023-05-06T10:48:32.020Z,101324.56
2023-05-06T10:51:24.645Z,101431.09
2023-05-06T10:54:03.894Z,101434.03
2023-05-06T10:56:33.052Z,101507.94
2023-05-06T10:59:05.653Z,101557.13
2023-05-06T11:01:33.365Z,101525.06
2023-05-06T11:04:05.251Z,101511.13
2023-05-06T11:06:34.330Z,101468.91
2023-05-06T11:09:03.917Z,101458.38
2023-05-06T11:11:51.651Z,101518.25
2023-05-06T11:14:29.468Z,101527.81
2023-05-06T11:16:58.429Z,101473.75
2023-05-06T11:19:26.916Z,101471.06
2023-05-06T11:21:55.626Z,101468.34
2023-05-06T11:24:26.081Z,101496.03
2023-05-06T11:26:54.639Z,101436.94
2023-05-06T11:29:22.990Z,101389.69
2023-05-06T11:31:50.780Z,101388.19
2023-05-06T11:34:22.806Z,101413.22
2023-05-06T11:36:56.776Z,101329.72
2023-05-06T11:39:25.947Z,101389.44
2023-05-06T11:41:53.506Z,101389.72
2023-05-06T11:44:28.432Z,101433.84
2023-05-06T11:46:59.943Z,101484.63
2023-05-06T11:49:27.638Z,101503.19
2023-05-06T11:51:55.680Z,101497.22
2023-05-06T11:54:24.206Z,101498.91
2023-05-06T11:56:54.040Z,101486.78
2023-05-06T11:59:29.927Z,101511.34
2023-05-06T12:01:58.793Z,101619.09
2023-05-06T12:04:26.533Z,101679.56
2023-05-06T12:06:54.561Z,101752.25
2023-05-06T12:09:22.807Z,101810.81
2023-05-06T12:11:52.133Z,101857.56
2023-05-06T12:14:19.943Z,101850.84
2023-05-06T12:16:47.510Z,101853.31
2023-05-06T12:19:16.779Z,101870.63
2023-05-06T12:21:44.554Z,101874.19
2023-05-06T12:24:12.077Z,101906.16
2023-05-06T12:26:46.502Z,101876.00
2023-05-06T12:29:16.798Z,101871.34
2023-05-06T12:31:45.203Z,101869.97
2023-05-06T12:34:13.130Z,101858.66
2023-05-06T12:36:42.314Z,101846.66
2023-05-06T12:39:09.762Z,101837.34
2023-05-06T12:41:39.246Z,101823.19
2023-05-06T12:44:33.600Z,101781.91
2023-05-06T12:47:02.381Z,101833.44
2023-05-06T12:49:50.583Z,101799.84
2023-05-06T12:52:18.974Z,101787.84
2023-05-06T12:54:46.819Z,101794.06
2023-05-06T12:57:14.471Z,101787.50
2023-05-06T12:59:44.198Z,101756.56
2023-05-06T13:02:12.444Z,101835.03
2023-05-06T13:04:40.196Z,101886.66
2023-05-06T13:07:07.720Z,101889.28
2023-05-06T13:09:35.161Z,101923.78
2023-05-06T13:12:02.533Z,101932.59
2023-05-06T13:14:30.041Z,101931.63
2023-05-06T13:16:58.735Z,101926.53
2023-05-06T13:21:58.895Z,101913.75
2023-05-06T13:24:26.482Z,101918.66
2023-05-06T13:26:53.716Z,101919.56
2023-05-06T13:29:21.050Z,101909.00
2023-05-06T13:31:48.548Z,101899.59
2023-05-06T13:34:17.130Z,101909.78
2023-05-06T13:36:44.473Z,101931.38
2023-05-06T13:39:11.773Z,101926.75
2023-05-06T13:41:39.012Z,101919.69
2023-05-06T13:44:06.228Z,101918.97
2023-05-06T13:46:33.566Z,101907.06
2023-05-06T13:49:00.822Z,101919.66
2023-05-06T13:51:29.495Z,101893.34
2023-05-06T13:53:56.734Z,101918.28
2023-05-06T13:56:24.002Z,101935.84
2023-05-06T13:58:51.302Z,101941.72
2023-05-06T14:01:18.823Z,101930.66
2023-05-06T14:03:46.065Z,101923.72
2023-05-06T14:06:13.482Z,101893.91
2023-05-06T14:08:42.249Z,101863.56
2023-05-06T14:11:09.658Z,101861.41
2023-05-06T14:13:37.610Z,101844.41
2023-05-06T14:16:05.482Z,101844.22
2023-05-06T14:18:33.167Z,101870.81
2023-05-06T14:21:00.481Z,101903.91
2023-05-06T14:23:27.720Z,101901.88
2023-05-06T14:25:56.600Z,101894.78
2023-05-06T14:28:24.207Z,101894.16
2023-05-06T14:30:51.558Z,101883.81
2023-05-06T14:33:18.833Z,101898.59
2023-05-06T14:35:46.253Z,101908.81
2023-05-06T14:38:13.651Z,101900.59
2023-05-06T14:40:40.932Z,101911.97
2023-05-06T14:43:09.868Z,101896.91
2023-05-06T14:45:37.217Z,101906.13
2023-05-06T14:48:05.177Z,101899.94
2023-05-06T14:50:32.562Z,101907.16
2023-05-06T14:53:01.005Z,101895.69
2023-05-06T14:55:29.595Z,101894.66
2023-05-06T14:57:56.861Z,101895.38
2023-05-06T15:00:25.757Z,101901.47
2023-05-06T15:02:53.177Z,101897.59
2023-05-06T15:05:21.731Z,101890.69
2023-05-06T15:07:49.065Z,101899.22
2023-05-06T15:10:16.641Z,101897.34
2023-05-06T15:12:44.193Z,101900.66
2023-05-06T15:15:11.740Z,101918.25
2023-05-06T15:17:40.871Z,101918.06
2023-05-06T15:20:09.359Z,101924.56
2023-05-06T15:22:39.185Z,101922.00
2023-05-06T15:25:09.515Z,101928.38
2023-05-06T15:27:39.635Z,101930.97
2023-05-06T15:30:08.025Z,101930.84
2023-05-06T15:32:35.313Z,101935.50
2023-05-06T15:35:04.880Z,101936.88
2023-05-06T15:37:33.192Z,101930.53
2023-05-06T15:40:00.943Z,101917.31
2023-05-06T15:42:29.290Z,101872.75
2023-05-06T15:44:57.668Z,101849.34
2023-05-06T15:47:25.228Z,101823.53
2023-05-06T15:49:54.995Z,101797.28
2023-05-06T15:52:24.299Z,101751.50
2023-05-06T15:54:51.809Z,101763.75
2023-05-06T15:57:19.327Z,101770.81
2023-05-06T15:59:46.527Z,101771.44
2023-05-06T16:02:26.912Z,101777.91
2023-05-06T16:04:55.076Z,101849.34
2023-05-06T16:07:24.028Z,101859.31
2023-05-06T16:09:51.257Z,101879.88
2023-05-06T16:12:18.590Z,101867.53
2023-05-06T16:14:45.843Z,101887.59
2023-05-06T16:17:13.086Z,101866.34
2023-05-06T16:19:40.374Z,101838.41
2023-05-06T16:22:07.636Z,101824.06
2023-05-06T16:24:36.387Z,101775.31
2023-05-06T16:27:03.773Z,101749.31
2023-05-06T16:29:31.179Z,101754.78
2023-05-06T16:31:58.617Z,101756.34
2023-05-06T16:34:26.046Z,101723.13
2023-05-06T16:36:53.302Z,101689.78
2023-05-06T16:39:20.547Z,101699.63
2023-05-06T16:41:49.134Z,101677.41
2023-05-06T16:44:16.347Z,101666.88
2023-05-06T16:46:43.586Z,101613.69
2023-05-06T16:49:11.104Z,101555.16
2023-05-06T16:51:39.104Z,101503.06
2023-05-06T16:54:13.819Z,101388.66
2023-05-06T16:56:51.482Z,101264.56
2023-05-06T16:59:22.458Z,101142.56
2023-05-06T17:01:50.078Z,100985.06
2023-05-06T17:04:17.398Z,100882.56
2023-05-06T17:06:44.694Z,100777.06
2023-05-06T17:09:11.957Z,100684.22
2023-05-06T17:11:39.172Z,100655.75
2023-05-06T17:14:06.524Z,100642.03
2023-05-06T17:16:35.370Z,100630.94
2023-05-06T17:19:02.694Z,100623.72
2023-05-06T17:21:30.034Z,100621.72
2023-05-06T17:23:58.995Z,100587.56
2023-05-06T17:26:26.288Z,100581.81
2023-05-06T17:28:54.004Z,100556.56
2023-05-06T17:31:21.487Z,100554.97
2023-05-06T17:33:50.282Z,100570.22
2023-05-06T17:36:18.631Z,100550.44
2023-05-06T17:38:46.201Z,100538.78
2023-05-06T17:41:13.793Z,100555.22
2023-05-06T17:43:41.158Z,100527.59
2023-05-06T17:46:08.509Z,100498.41
2023-05-06T17:48:35.939Z,100481.03
2023-05-06T17:51:04.733Z,100491.94
2023-05-06T17:53:31.974Z,100479.69
2023-05-06T17:55:59.222Z,100488.25
2023-05-06T17:58:26.698Z,100484.22
2023-05-06T18:00:53.973Z,100480.13
2023-05-06T18:03:22.542Z,100467.03
2023-05-06T18:05:50.033Z,100454.34
2023-05-06T18:08:18.847Z,100447.88
2023-05-06T18:10:46.139Z,100442.44
2023-05-06T18:13:13.493Z,100426.19
2023-05-06T18:15:40.738Z,100437.28
2023-05-06T18:18:08.173Z,100430.94
2023-05-06T18:20:35.649Z,100424.19
2023-05-06T18:23:02.942Z,100419.44
2023-05-06T18:25:31.560Z,100430.31
2023-05-06T18:27:58.929Z,100410.97
2023-05-06T18:30:26.278Z,100400.25
2023-05-06T18:32:55.970Z,100395.53
2023-05-06T18:35:23.990Z,100382.53
2023-05-06T18:37:51.350Z,100378.94
2023-05-06T18:40:18.755Z,100367.38
2023-05-06T18:42:48.005Z,100353.31
2023-05-06T18:45:15.362Z,100347.28
2023-05-06T18:47:42.912Z,100354.59
2023-05-06T18:50:10.834Z,100339.34
2023-05-06T18:52:38.112Z,100341.66
2023-05-06T18:55:06.064Z,100316.34
2023-05-06T18:57:33.380Z,100311.66
2023-05-06T19:00:01.950Z,100304.22
2023-05-06T19:02:29.340Z,100311.13
2023-05-06T19:04:56.685Z,100301.16
2023-05-06T19:07:23.966Z,100283.34
2023-05-06T19:09:51.191Z,100280.19
2023-05-06T19:12:18.513Z,100264.56
2023-05-06T19:14:45.783Z,100243.72
2023-05-06T19:17:14.658Z,100222.41
2023-05-06T19:19:42.024Z,100233.19
2023-05-06T19:22:09.290Z,100217.50
2023-05-06T19:24:36.488Z,100215.69
2023-05-06T19:27:03.821Z,100208.78
2023-05-06T19:29:31.198Z,100217.19
2023-05-06T19:31:58.603Z,100204.63
2023-05-06T19:34:27.155Z,100201.22
2023-05-06T19:36:54.544Z,100179.88
2023-05-06T19:39:21.780Z,100191.44
2023-05-06T19:41:49.533Z,100194.06
2023-05-06T19:44:16.714Z,100186.59
2023-05-06T19:46:44.124Z,100183.94
2023-05-06T19:49:11.557Z,100185.69
2023-05-06T19:51:40.329Z,100180.25
2023-05-06T19:54:07.581Z,100180.25
2023-05-06T19:56:34.874Z,100183.88
2023-05-06T19:59:02.401Z,100187.88
2023-05-06T20:01:29.778Z,100188.50
2023-05-06T20:03:57.119Z,100191.63
2023-05-06T20:06:24.470Z,100202.03
2023-05-06T20:08:53.281Z,100193.91
2023-05-06T20:11:20.669Z,100198.03
2023-05-06T20:13:47.934Z,100201.25
2023-05-06T20:16:15.263Z,100210.59
2023-05-06T20:18:42.486Z,100215.09
2023-05-06T20:21:09.799Z,100214.03
2023-05-06T20:23:37.094Z,100209.84
2023-05-06T20:26:05.791Z,100217.94
2023-05-06T20:28:33.321Z,100233.94
2023-05-06T20:31:00.753Z,100226.50
2023-05-06T20:33:28.341Z,100233.47
2023-05-06T20:35:55.692Z,100235.91
2023-05-06T20:38:23.045Z,100244.94
2023-05-06T20:40:50.492Z,100249.59
2023-05-06T20:43:19.275Z,100241.50
2023-05-06T20:45:46.552Z,100249.56
2023-05-06T20:48:15.089Z,100252.84
2023-05-06T20:50:42.834Z,100265.72
2023-05-06T20:53:10.062Z,100271.03
2023-05-06T20:55:37.459Z,100269.16
2023-05-06T20:58:04.706Z,100273.19
2023-05-06T21:00:33.663Z,100284.25
2023-05-06T21:03:01.224Z,100285.63
2023-05-06T21:05:28.653Z,100281.91
2023-05-06T21:07:55.897Z,100284.09
2023-05-06T21:10:23.230Z,100290.00
2023-05-06T21:12:50.700Z,100286.44
2023-05-06T21:15:18.227Z,100292.94
2023-05-06T21:17:46.963Z,100286.44
2023-05-06T21:20:14.528Z,100293.09
2023-05-06T21:22:41.773Z,100287.84
2023-05-06T21:25:09.734Z,100282.41
2023-05-06T21:27:37.140Z,100280.84
2023-05-06T21:30:05.374Z,100272.47
2023-05-06T21:32:32.772Z,100274.50
2023-05-06T21:35:02.712Z,100272.78
2023-05-06T21:37:29.926Z,100273.25
2023-05-06T21:39:57.172Z,100274.78
2023-05-06T21:42:24.436Z,100283.50
2023-05-06T21:44:51.705Z,100288.78
2023-05-06T21:47:19.042Z,100280.22
2023-05-06T21:49:46.390Z,100288.28
2023-05-06T21:52:15.048Z,100286.59
2023-05-06T21:54:45.295Z,100293.13
2023-05-06T21:57:12.480Z,100298.56
2023-05-06T21:59:39.712Z,100283.66
2023-05-06T22:02:07.207Z,100308.50
2023-05-06T22:04:34.750Z,100319.97
2023-05-06T22:07:01.966Z,100310.19
2023-05-06T22:09:30.639Z,100307.06
2023-05-06T22:11:57.829Z,100309.25
2023-05-06T22:14:30.233Z,100314.50
2023-05-06T22:17:01.033Z,100318.56
2023-05-06T22:19:28.287Z,100321.63
2023-05-06T22:21:55.605Z,100306.13
2023-05-06T22:24:22.880Z,100309.88
2023-05-06T22:26:51.570Z,100315.00
2023-05-06T22:29:18.777Z,100319.47
2023-05-06T22:31:46.187Z,100326.63
2023-05-06T22:34:13.460Z,100314.84
2023-05-06T22:36:40.773Z,100326.94
2023-05-06T22:39:07.988Z,100325.66
2023-05-06T22:41:35.302Z,100334.63
2023-05-06T22:44:04.402Z,100334.31
2023-05-06T22:46:31.790Z,100322.56
2023-05-06T22:48:59.081Z,100313.84
2023-05-06T22:51:26.549Z,100313.25
2023-05-06T22:53:53.892Z,100318.53
2023-05-06T22:56:21.193Z,100323.31
2023-05-06T22:58:48.373Z,100315.69
2023-05-06T23:01:17.225Z,100315.00
2023-05-06T23:03:44.656Z,100316.63
2023-05-06T23:06:11.996Z,100317.19
2023-05-06T23:08:39.245Z,100318.22
2023-05-06T23:11:06.648Z,100314.19
2023-05-06T23:13:33.931Z,100313.25
2023-05-06T23:16:01.345Z,100321.16
2023-05-06T23:18:29.963Z,100315.38
2023-05-06T23:20:57.265Z,100322.97
2023-05-06T23:23:24.523Z,100320.19
2023-05-06T23:25:51.879Z,100325.47
2023-05-06T23:28:19.363Z,100321.38
2023-05-06T23:30:46.805Z,100318.78
2023-05-06T23:33:14.339Z,100324.22
2023-05-06T23:35:44.451Z,100321.09
2023-05-06T23:38:11.894Z,100323.56
2023-05-06T23:40:39.386Z,100324.31
2023-05-06T23:43:06.940Z,100328.16
2023-05-06T23:45:34.315Z,100333.28
2023-05-06T23:48:01.644Z,100331.28
2023-05-06T23:50:29.087Z,100334.53
2023-05-06T23:52:58.065Z,100338.59
2023-05-06T23:55:25.804Z,100342.44
2023-05-06T23:57:53.093Z,100342.25
